createdAt,value
2018-07-15T00:01:29.774Z,23.43
2018-07-15T00:03:06.408Z,23.47
2018-07-15T00:04:43.494Z,23.39
2018-07-15T00:06:22.939Z,23.58
2018-07-15T00:08:00.798Z,23.71
2018-07-15T00:09:39.502Z,23.79
2018-07-15T00:11:15.957Z,23.68
2018-07-15T00:14:27.575Z,23.20
2018-07-15T00:16:04.510Z,23.29
2018-07-15T00:17:41.901Z,23.11
2018-07-15T00:19:18.301Z,23.25
2018-07-15T00:20:56.791Z,22.78
2018-07-15T00:22:35.573Z,22.59
2018-07-15T00:24:12.924Z,22.86
2018-07-15T00:25:50.247Z,23.13
2018-07-15T00:27:27.149Z,23.26
2018-07-15T00:29:05.108Z,23.26
2018-07-15T00:30:42.047Z,22.91
2018-07-15T00:32:20.987Z,22.81
2018-07-15T00:34:00.365Z,22.82
2018-07-15T00:35:38.068Z,22.72
2018-07-15T00:37:18.720Z,22.61
2018-07-15T00:38:55.976Z,22.34
2018-07-15T00:40:33.853Z,22.17
2018-07-15T00:42:11.075Z,21.92
2018-07-15T00:43:47.446Z,22.13
2018-07-15T00:45:25.605Z,22.36
2018-07-15T00:47:07.319Z,22.23
2018-07-15T00:48:43.734Z,22.22
2018-07-15T00:50:20.047Z,22.24
2018-07-15T00:51:56.459Z,21.98
2018-07-15T00:53:35.597Z,21.80
2018-07-15T00:55:12.054Z,21.59
2018-07-15T00:56:48.521Z,21.43
2018-07-15T00:58:27.200Z,21.17
2018-07-15T01:00:04.949Z,21.19
2018-07-15T01:01:42.576Z,21.31
2018-07-15T01:03:19.352Z,21.27
2018-07-15T01:04:56.086Z,21.32
2018-07-15T01:06:32.563Z,21.40
2018-07-15T01:08:09.750Z,21.55
2018-07-15T01:09:46.298Z,21.57
2018-07-15T01:11:23.476Z,21.66
2018-07-15T01:13:01.446Z,21.76
2018-07-15T01:14:37.848Z,21.62
2018-07-15T01:16:15.277Z,21.35
2018-07-15T01:17:51.930Z,21.30
2018-07-15T01:19:28.474Z,21.42
2018-07-15T01:21:06.713Z,21.89
2018-07-15T01:22:43.756Z,22.03
2018-07-15T01:24:20.559Z,22.04
2018-07-15T01:25:56.972Z,21.76
2018-07-15T01:27:35.528Z,21.59
2018-07-15T01:29:12.048Z,21.36
2018-07-15T01:30:50.243Z,21.39
2018-07-15T01:32:27.412Z,21.57
2018-07-15T01:34:03.770Z,21.49
2018-07-15T01:35:40.793Z,21.63
2018-07-15T01:37:17.829Z,21.62
2018-07-15T01:38:54.205Z,21.56
2018-07-15T01:40:31.227Z,21.48
2018-07-15T01:42:08.147Z,21.29
2018-07-15T01:43:44.941Z,21.26
2018-07-15T01:45:21.712Z,21.42
2018-07-15T01:46:58.390Z,21.60
2018-07-15T01:48:34.738Z,21.53
2018-07-15T01:50:12.073Z,21.39
2018-07-15T01:51:48.523Z,21.42
2018-07-15T01:53:24.787Z,21.25
2018-07-15T01:55:02.682Z,21.44
2018-07-15T01:56:42.555Z,21.23
2018-07-15T01:58:20.478Z,21.22
2018-07-15T01:59:58.200Z,21.00
2018-07-15T02:01:34.798Z,20.92
2018-07-15T02:03:11.045Z,21.03
2018-07-15T02:04:47.457Z,21.03
2018-07-15T02:06:23.807Z,21.11
2018-07-15T02:08:01.797Z,21.10
2018-07-15T02:09:39.653Z,21.08
2018-07-15T02:11:18.737Z,21.14
2018-07-15T02:12:56.439Z,20.97
2018-07-15T02:14:33.310Z,20.98
2018-07-15T02:16:13.681Z,20.93
2018-07-15T02:17:53.419Z,20.87
2018-07-15T02:19:30.924Z,20.70
2018-07-15T02:21:07.810Z,20.80
2018-07-15T02:22:47.982Z,20.63
2018-07-15T02:24:24.639Z,20.54
2018-07-15T02:26:00.965Z,20.47
2018-07-15T02:27:37.722Z,20.57
2018-07-15T02:29:14.565Z,20.48
2018-07-15T02:30:51.073Z,20.54
2018-07-15T02:32:28.038Z,20.63
2018-07-15T02:34:04.334Z,20.65
2018-07-15T02:35:41.311Z,20.73
2018-07-15T02:37:19.224Z,20.78
2018-07-15T02:38:55.524Z,20.95
2018-07-15T02:40:32.481Z,21.25
2018-07-15T02:42:09.167Z,21.33
2018-07-15T02:43:46.321Z,21.58
2018-07-15T02:45:24.016Z,21.30
2018-07-15T02:47:01.911Z,20.96
2018-07-15T02:48:40.198Z,20.81
2018-07-15T02:50:19.405Z,20.74
2018-07-15T02:51:57.096Z,20.87
2018-07-15T02:53:33.863Z,20.65
2018-07-15T02:55:10.198Z,20.49
2018-07-15T02:56:48.658Z,20.72
2018-07-15T02:58:26.006Z,20.52
2018-07-15T03:00:05.222Z,20.49
2018-07-15T03:01:41.957Z,20.72
2018-07-15T03:03:18.305Z,20.98
2018-07-15T03:05:03.729Z,20.82
2018-07-15T03:08:19.488Z,20.82
2018-07-15T03:09:55.731Z,20.77
2018-07-15T03:11:32.489Z,20.83
2018-07-15T03:13:09.470Z,20.92
2018-07-15T03:14:48.612Z,21.08
2018-07-15T03:16:25.572Z,21.32
2018-07-15T03:18:02.327Z,21.45
2018-07-15T03:19:38.660Z,21.55
2018-07-15T03:21:14.914Z,21.55
2018-07-15T03:22:51.476Z,21.72
2018-07-15T03:24:54.488Z,21.65
2018-07-15T03:28:01.209Z,21.64
2018-07-15T03:29:40.530Z,21.82
2018-07-15T03:31:17.370Z,21.98
2018-07-15T03:32:54.077Z,22.11
2018-07-15T03:34:31.463Z,22.29
2018-07-15T03:36:08.278Z,22.39
2018-07-15T03:37:44.646Z,22.41
2018-07-15T03:39:34.146Z,22.39
2018-07-15T03:41:11.552Z,22.35
2018-07-15T03:42:55.182Z,22.43
2018-07-15T03:44:49.294Z,22.31
2018-07-15T03:46:33.619Z,22.37
2018-07-15T03:48:18.642Z,22.35
2018-07-15T03:49:54.837Z,22.48
2018-07-15T03:51:31.041Z,22.67
2018-07-15T03:53:07.309Z,22.92
2018-07-15T03:54:44.053Z,23.01
2018-07-15T03:56:20.880Z,23.14
2018-07-15T03:58:11.665Z,23.30
2018-07-15T03:59:48.312Z,23.54
2018-07-15T04:01:26.576Z,23.56
2018-07-15T04:03:03.222Z,23.85
2018-07-15T04:04:51.978Z,24.12
2018-07-15T04:06:30.222Z,24.50
2018-07-15T04:08:11.169Z,24.61
2018-07-15T04:09:48.185Z,24.65
2018-07-15T04:11:25.006Z,25.01
2018-07-15T04:13:02.361Z,25.30
2018-07-15T04:14:40.604Z,25.61
2018-07-15T04:16:22.330Z,25.90
2018-07-15T04:18:13.855Z,26.22
2018-07-15T04:19:51.951Z,26.39
2018-07-15T04:21:28.530Z,26.55
2018-07-15T04:23:05.454Z,26.58
2018-07-15T04:24:41.541Z,26.48
2018-07-15T04:26:18.165Z,26.47
2018-07-15T04:27:55.375Z,26.48
2018-07-15T04:29:31.722Z,26.81
2018-07-15T04:31:08.583Z,27.14
2018-07-15T04:32:44.818Z,27.53
2018-07-15T04:34:21.037Z,27.75
2018-07-15T04:35:57.301Z,27.83
2018-07-15T04:37:35.357Z,28.14
2018-07-15T04:39:12.151Z,28.32
2018-07-15T04:40:48.706Z,28.50
2018-07-15T04:42:25.580Z,28.78
2018-07-15T04:44:03.484Z,28.95
2018-07-15T04:45:40.854Z,28.84
2018-07-15T04:47:17.082Z,28.95
2018-07-15T04:49:05.811Z,28.87
2018-07-15T04:50:48.103Z,28.69
2018-07-15T04:52:34.987Z,28.35
2018-07-15T04:54:11.222Z,27.56
2018-07-15T04:55:48.217Z,26.88
2018-07-15T04:57:28.545Z,27.28
2018-07-15T04:59:07.518Z,27.66
2018-07-15T05:00:45.091Z,28.01
2018-07-15T05:02:22.614Z,28.22
2018-07-15T05:03:58.803Z,28.00
2018-07-15T05:05:35.449Z,27.95
2018-07-15T05:07:13.461Z,28.28
2018-07-15T05:08:52.362Z,27.83
2018-07-15T05:10:39.606Z,28.00
2018-07-15T05:12:16.277Z,27.29
2018-07-15T05:13:55.408Z,26.91
2018-07-15T05:15:35.887Z,26.49
2018-07-15T05:19:30.496Z,25.66
2018-07-15T05:21:06.813Z,25.02
2018-07-15T05:22:52.350Z,24.99
2018-07-15T05:24:29.193Z,25.09
2018-07-15T05:26:06.637Z,25.48
2018-07-15T05:27:43.078Z,26.06
2018-07-15T05:29:19.766Z,26.05
2018-07-15T05:30:59.836Z,25.76
2018-07-15T05:32:36.135Z,25.76
2018-07-15T05:34:13.468Z,25.76
2018-07-15T05:35:50.165Z,25.71
2018-07-15T05:37:28.726Z,25.60
2018-07-15T05:39:05.533Z,25.86
2018-07-15T05:40:41.609Z,26.10
2018-07-15T05:42:17.881Z,26.01
2018-07-15T05:43:54.459Z,26.57
2018-07-15T05:45:35.419Z,27.42
2018-07-15T05:47:11.961Z,28.09
2018-07-15T05:48:48.291Z,28.55
2018-07-15T05:50:24.871Z,28.76
2018-07-15T05:52:03.617Z,28.74
2018-07-15T05:53:39.897Z,28.33
2018-07-15T05:55:19.040Z,27.78
2018-07-15T05:56:55.679Z,27.28
2018-07-15T05:58:31.954Z,27.38
2018-07-15T06:00:09.689Z,27.94
2018-07-15T06:01:46.684Z,28.44
2018-07-15T06:03:23.480Z,29.19
2018-07-15T06:05:07.530Z,29.46
2018-07-15T06:06:52.617Z,29.72
2018-07-15T06:08:44.762Z,30.56
2018-07-15T06:10:26.333Z,30.13
2018-07-15T06:12:06.125Z,29.36
2018-07-15T06:15:05.603Z,28.65
2018-07-15T06:16:42.055Z,27.65
2018-07-15T06:18:18.379Z,28.07
2018-07-15T06:19:57.323Z,29.00
2018-07-15T06:22:07.126Z,29.55
2018-07-15T06:23:45.476Z,29.62
2018-07-15T06:25:22.610Z,28.92
2018-07-15T06:27:07.766Z,29.00
2018-07-15T06:28:45.427Z,28.77
2018-07-15T06:30:46.509Z,28.91
2018-07-15T06:32:33.001Z,29.28
2018-07-15T06:34:12.736Z,29.69
2018-07-15T06:35:49.506Z,30.11
2018-07-15T06:37:32.356Z,30.19
2018-07-15T06:39:15.601Z,30.01
2018-07-15T06:40:52.257Z,29.91
2018-07-15T06:42:29.211Z,29.52
2018-07-15T06:44:05.831Z,29.55
2018-07-15T06:45:43.207Z,30.01
2018-07-15T06:47:19.418Z,30.23
2018-07-15T06:49:01.317Z,30.39
2018-07-15T06:50:38.846Z,29.97
2018-07-15T06:52:16.046Z,30.21
2018-07-15T06:53:52.768Z,29.89
2018-07-15T06:55:30.923Z,29.88
2018-07-15T06:57:08.318Z,29.95
2018-07-15T06:58:44.909Z,30.10
2018-07-15T07:00:24.554Z,30.12
2018-07-15T07:02:01.173Z,30.23
2018-07-15T07:03:39.101Z,30.51
2018-07-15T07:05:23.357Z,30.71
2018-07-15T07:07:14.514Z,30.35
2018-07-15T07:08:55.967Z,29.91
2018-07-15T07:10:42.032Z,29.95
2018-07-15T07:12:21.340Z,29.95
2018-07-15T07:13:57.601Z,29.85
2018-07-15T07:15:34.463Z,29.86
2018-07-15T07:17:17.792Z,29.82
2018-07-15T07:18:55.511Z,29.95
2018-07-15T07:20:32.375Z,30.07
2018-07-15T07:22:09.146Z,29.42
2018-07-15T07:23:46.172Z,29.32
2018-07-15T07:25:23.155Z,29.55
2018-07-15T07:26:59.438Z,30.09
2018-07-15T07:28:41.821Z,30.23
2018-07-15T07:30:20.786Z,30.17
2018-07-15T07:31:57.241Z,30.18
2018-07-15T07:33:33.469Z,30.16
2018-07-15T07:35:10.927Z,29.51
2018-07-15T07:38:33.253Z,28.48
2018-07-15T07:40:10.687Z,28.17
2018-07-15T07:41:49.548Z,28.09
2018-07-15T07:43:30.834Z,28.44
2018-07-15T07:45:08.090Z,28.64
2018-07-15T07:46:45.578Z,28.51
2018-07-15T07:48:23.918Z,28.82
2018-07-15T07:50:15.621Z,29.17
2018-07-15T07:51:54.909Z,28.95
2018-07-15T07:53:31.278Z,29.11
2018-07-15T07:55:18.446Z,29.65
2018-07-15T07:56:58.617Z,30.03
2018-07-15T07:58:39.940Z,30.30
2018-07-15T08:00:19.978Z,29.76
2018-07-15T08:01:57.765Z,29.25
2018-07-15T08:03:34.955Z,29.22
2018-07-15T08:05:17.602Z,29.14
2018-07-15T08:07:01.334Z,29.73
2018-07-15T08:08:40.287Z,30.27
2018-07-15T08:10:18.103Z,30.05
2018-07-15T08:11:57.458Z,29.92
2018-07-15T08:13:33.886Z,29.97
2018-07-15T08:15:11.767Z,29.65
2018-07-15T08:16:48.152Z,29.35
2018-07-15T08:18:26.217Z,28.85
2018-07-15T08:20:03.218Z,28.74
2018-07-15T08:21:40.315Z,28.87
2018-07-15T08:23:17.545Z,28.84
2018-07-15T08:24:54.722Z,28.81
2018-07-15T08:26:31.784Z,29.26
2018-07-15T08:28:08.293Z,29.43
2018-07-15T08:30:03.606Z,29.69
2018-07-15T08:31:40.162Z,29.05
2018-07-15T08:33:16.440Z,29.16
2018-07-15T08:34:54.323Z,28.96
2018-07-15T08:36:33.685Z,29.15
2018-07-15T08:38:10.755Z,29.07
2018-07-15T08:39:50.415Z,29.56
2018-07-15T08:41:28.178Z,30.08
2018-07-15T08:43:12.132Z,30.06
2018-07-15T08:45:07.811Z,30.02
2018-07-15T08:46:44.691Z,29.82
2018-07-15T08:48:22.450Z,29.56
2018-07-15T08:50:01.167Z,29.76
2018-07-15T08:51:38.516Z,29.98
2018-07-15T08:53:14.965Z,30.13
2018-07-15T08:54:52.944Z,30.45
2018-07-15T08:56:33.782Z,30.56
2018-07-15T08:58:10.172Z,30.32
2018-07-15T08:59:48.907Z,30.66
2018-07-15T09:01:25.704Z,30.18
2018-07-15T09:03:03.572Z,29.80
2018-07-15T09:04:46.635Z,29.29
2018-07-15T09:06:24.463Z,28.65
2018-07-15T09:08:00.743Z,28.73
2018-07-15T09:09:38.197Z,29.27
2018-07-15T09:11:14.507Z,29.87
2018-07-15T09:12:51.526Z,29.37
2018-07-15T09:14:31.146Z,28.88
2018-07-15T09:16:09.989Z,29.32
2018-07-15T09:17:50.737Z,29.58
2018-07-15T09:19:27.832Z,29.24
2018-07-15T09:21:08.393Z,28.89
2018-07-15T09:22:47.466Z,28.95
2018-07-15T09:24:23.977Z,29.47
2018-07-15T09:26:02.606Z,29.79
2018-07-15T09:27:43.151Z,30.24
2018-07-15T09:29:22.547Z,29.77
2018-07-15T09:30:58.732Z,29.01
2018-07-15T09:32:37.725Z,28.87
2018-07-15T09:34:14.481Z,28.80
2018-07-15T09:35:52.881Z,28.45
2018-07-15T09:37:42.301Z,28.59
2018-07-15T09:39:22.573Z,28.83
2018-07-15T09:41:00.449Z,29.01
2018-07-15T09:45:06.300Z,29.29
2018-07-15T09:46:55.210Z,29.29
2018-07-15T09:48:41.634Z,29.16
2018-07-15T09:50:19.365Z,29.10
2018-07-15T09:51:57.502Z,28.91
2018-07-15T09:53:35.222Z,28.95
2018-07-15T09:57:00.629Z,28.90
2018-07-15T09:58:37.006Z,28.66
2018-07-15T10:02:29.380Z,28.35
2018-07-15T10:04:09.522Z,28.26
2018-07-15T10:06:14.260Z,28.47
2018-07-15T10:07:54.128Z,28.36
2018-07-15T10:09:31.724Z,28.74
2018-07-15T10:11:08.936Z,29.12
2018-07-15T10:12:47.281Z,29.42
2018-07-15T10:14:24.223Z,28.97
2018-07-15T10:16:03.572Z,28.91
2018-07-15T10:17:41.899Z,28.70
2018-07-15T10:19:19.652Z,28.70
2018-07-15T10:20:57.458Z,28.95
2018-07-15T10:22:36.390Z,28.89
2018-07-15T10:24:13.967Z,28.91
2018-07-15T10:25:52.850Z,28.97
2018-07-15T10:27:29.768Z,28.79
2018-07-15T10:29:09.817Z,28.79
2018-07-15T10:30:48.393Z,28.83
2018-07-15T10:32:24.909Z,28.88
2018-07-15T10:34:02.038Z,28.57
2018-07-15T10:35:40.123Z,28.57
2018-07-15T10:37:17.095Z,28.90
2018-07-15T10:38:55.698Z,29.06
2018-07-15T10:40:33.763Z,29.15
2018-07-15T10:42:13.464Z,29.10
2018-07-15T10:43:54.381Z,29.14
2018-07-15T10:45:33.308Z,29.02
2018-07-15T10:47:10.680Z,29.05
2018-07-15T10:48:47.222Z,29.00
2018-07-15T10:50:26.615Z,29.11
2018-07-15T10:52:05.866Z,29.03
2018-07-15T10:53:42.829Z,29.10
2018-07-15T10:55:22.252Z,28.72
2018-07-15T10:56:58.812Z,28.50
2018-07-15T10:58:44.174Z,28.52
2018-07-15T11:00:23.478Z,28.94
2018-07-15T11:02:07.166Z,29.12
2018-07-15T11:03:43.528Z,29.17
2018-07-15T11:05:20.734Z,29.21
2018-07-15T11:06:58.090Z,29.20
2018-07-15T11:08:36.640Z,29.33
2018-07-15T11:10:14.322Z,29.20
2018-07-15T11:11:59.406Z,29.10
2018-07-15T11:13:37.798Z,29.06
2018-07-15T11:15:18.247Z,29.23
2018-07-15T11:16:58.573Z,29.42
2018-07-15T11:18:37.457Z,29.55
2018-07-15T11:20:17.427Z,29.53
2018-07-15T11:21:56.165Z,29.42
2018-07-15T11:23:33.861Z,29.59
2018-07-15T11:25:11.152Z,29.84
2018-07-15T11:26:50.230Z,29.96
2018-07-15T11:28:31.889Z,30.13
2018-07-15T11:30:13.207Z,29.94
2018-07-15T11:31:53.384Z,28.85
2018-07-15T11:33:29.883Z,28.97
2018-07-15T11:35:09.851Z,28.90
2018-07-15T11:36:51.671Z,28.94
2018-07-15T11:38:33.712Z,28.98
2018-07-15T11:40:10.168Z,29.11
2018-07-15T11:41:46.910Z,29.13
2018-07-15T11:43:24.023Z,29.46
2018-07-15T11:45:01.466Z,29.58
2018-07-15T11:46:41.228Z,29.57
2018-07-15T11:48:19.547Z,29.60
2018-07-15T11:49:55.855Z,29.70
2018-07-15T11:51:32.230Z,29.73
2018-07-15T11:53:10.421Z,29.40
2018-07-15T11:54:48.411Z,29.40
2018-07-15T11:56:26.530Z,29.35
2018-07-15T11:58:05.290Z,29.25
2018-07-15T11:59:42.525Z,29.32
2018-07-15T12:01:21.642Z,29.19
2018-07-15T12:03:00.358Z,28.67
2018-07-15T12:04:43.351Z,28.67
2018-07-15T12:06:28.552Z,28.90
2018-07-15T12:08:06.743Z,29.14
2018-07-15T12:09:47.228Z,29.34
2018-07-15T12:11:30.428Z,29.39
2018-07-15T12:13:08.254Z,29.42
2018-07-15T12:14:47.203Z,29.59
2018-07-15T12:16:24.848Z,29.83
2018-07-15T12:18:06.887Z,30.11
2018-07-15T12:19:45.213Z,30.03
2018-07-15T12:21:29.530Z,29.79
2018-07-15T12:23:06.308Z,29.72
2018-07-15T12:24:43.280Z,29.63
2018-07-15T12:26:22.402Z,29.74
2018-07-15T12:27:58.793Z,29.76
2018-07-15T12:29:35.106Z,29.66
2018-07-15T12:31:12.949Z,29.67
2018-07-15T12:32:53.259Z,29.33
2018-07-15T12:34:31.622Z,29.03
2018-07-15T12:36:14.584Z,28.85
2018-07-15T12:37:52.624Z,28.75
2018-07-15T12:39:29.658Z,28.79
2018-07-15T12:41:07.549Z,28.89
2018-07-15T12:42:46.678Z,29.42
2018-07-15T12:44:25.146Z,29.58
2018-07-15T12:46:04.496Z,29.81
2018-07-15T12:47:42.584Z,29.73
2018-07-15T12:49:24.310Z,29.66
2018-07-15T12:51:05.255Z,29.53
2018-07-15T12:52:44.387Z,29.89
2018-07-15T12:54:24.336Z,30.09
2018-07-15T12:56:04.756Z,30.22
2018-07-15T12:57:43.983Z,30.13
2018-07-15T12:59:20.350Z,30.17
2018-07-15T13:00:59.212Z,30.19
2018-07-15T13:02:38.554Z,30.09
2018-07-15T13:04:18.715Z,30.07
2018-07-15T13:05:55.590Z,29.86
2018-07-15T13:07:36.268Z,29.60
2018-07-15T13:09:13.344Z,29.53
2018-07-15T13:10:51.511Z,29.58
2018-07-15T13:12:34.584Z,29.59
2018-07-15T13:14:17.562Z,29.87
2018-07-15T13:15:55.549Z,30.04
2018-07-15T13:17:33.515Z,30.04
2018-07-15T13:19:12.891Z,29.94
2018-07-15T13:20:51.629Z,29.87
2018-07-15T13:22:30.276Z,29.85
2018-07-15T13:24:11.408Z,29.80
2018-07-15T13:25:51.546Z,29.77
2018-07-15T13:27:27.886Z,29.96
2018-07-15T13:29:06.330Z,30.08
2018-07-15T13:31:18.075Z,29.92
2018-07-15T13:32:56.419Z,29.81
2018-07-15T13:34:34.999Z,29.70
2018-07-15T13:36:14.820Z,29.77
2018-07-15T13:37:53.844Z,29.85
2018-07-15T13:39:30.250Z,29.98
2018-07-15T13:41:09.550Z,30.28
2018-07-15T13:42:51.117Z,30.37
2018-07-15T13:44:27.971Z,30.07
2018-07-15T13:46:17.222Z,30.11
2018-07-15T13:48:10.066Z,30.40
2018-07-15T13:49:52.513Z,30.63
2018-07-15T13:51:28.893Z,30.56
2018-07-15T13:53:05.670Z,30.48
2018-07-15T13:54:42.031Z,30.50
2018-07-15T13:56:18.532Z,30.49
2018-07-15T13:57:55.670Z,30.58
2018-07-15T13:59:38.622Z,30.11
2018-07-15T14:01:20.352Z,30.10
2018-07-15T14:02:56.494Z,30.00
2018-07-15T14:04:34.898Z,29.96
2018-07-15T14:06:15.029Z,30.06
2018-07-15T14:07:55.606Z,30.05
2018-07-15T14:09:37.454Z,30.06
2018-07-15T14:11:15.352Z,29.99
2018-07-15T14:12:51.992Z,30.06
2018-07-15T14:14:32.287Z,30.09
2018-07-15T14:16:13.733Z,30.16
2018-07-15T14:17:54.473Z,30.12
2018-07-15T14:19:33.445Z,29.98
2018-07-15T14:21:12.869Z,30.12
2018-07-15T14:22:50.959Z,30.24
2018-07-15T14:24:28.650Z,30.17
2018-07-15T14:26:06.827Z,30.33
2018-07-15T14:27:47.351Z,30.28
2018-07-15T14:29:32.389Z,30.47
2018-07-15T14:31:21.256Z,30.30
2018-07-15T14:33:19.270Z,29.66
2018-07-15T14:35:04.620Z,29.53
2018-07-15T14:36:44.389Z,29.91
2018-07-15T14:38:27.507Z,29.83
2018-07-15T14:40:25.178Z,29.58
2018-07-15T14:42:04.668Z,29.46
2018-07-15T14:43:43.283Z,29.28
2018-07-15T14:45:21.377Z,29.47
2018-07-15T14:46:58.774Z,29.68
2018-07-15T14:48:36.681Z,29.70
2018-07-15T14:50:15.622Z,29.87
2018-07-15T14:51:54.694Z,29.50
2018-07-15T14:53:37.805Z,29.53
2018-07-15T14:57:42.877Z,30.14
2018-07-15T15:04:39.241Z,30.30
2018-07-15T15:06:44.926Z,30.08
2018-07-15T15:08:48.809Z,30.07
2018-07-15T15:13:25.733Z,29.78
2018-07-15T15:15:25.130Z,30.23
2018-07-15T15:17:06.448Z,30.10
2018-07-15T15:18:44.351Z,30.25
2018-07-15T15:20:22.739Z,30.27
2018-07-15T15:22:06.682Z,30.20
2018-07-15T15:23:43.523Z,30.30
2018-07-15T15:26:53.554Z,30.29
2018-07-15T15:28:34.282Z,30.19
2018-07-15T15:30:54.247Z,30.28
2018-07-15T15:32:43.824Z,30.45
2018-07-15T15:36:07.561Z,30.28
2018-07-15T15:37:45.534Z,30.05
2018-07-15T15:39:24.454Z,29.85
2018-07-15T15:41:01.430Z,29.83
2018-07-15T15:42:39.938Z,29.91
2018-07-15T15:44:20.397Z,30.03
2018-07-15T15:45:57.182Z,30.10
2018-07-15T15:47:40.495Z,30.21
2018-07-15T15:49:19.605Z,29.86
2018-07-15T15:51:35.488Z,30.11
2018-07-15T15:53:14.305Z,29.70
2018-07-15T15:55:24.484Z,29.49
2018-07-15T15:57:05.339Z,29.72
2018-07-15T15:58:48.251Z,29.58
2018-07-15T16:00:27.355Z,29.79
2018-07-15T16:02:09.342Z,29.80
2018-07-15T16:03:47.848Z,29.68
2018-07-15T16:05:30.073Z,29.56
2018-07-15T16:07:07.704Z,29.77
2018-07-15T16:08:46.243Z,29.91
2018-07-15T16:10:25.968Z,30.09
2018-07-15T16:12:05.154Z,29.99
2018-07-15T16:13:43.234Z,29.80
2018-07-15T16:15:22.846Z,29.78
2018-07-15T16:17:09.036Z,29.86
2018-07-15T16:18:49.943Z,29.91
2018-07-15T16:20:29.933Z,29.96
2018-07-15T16:22:10.479Z,30.18
2018-07-15T16:23:48.537Z,30.35
2018-07-15T16:25:25.753Z,30.02
2018-07-15T16:27:03.295Z,29.73
2018-07-15T16:28:41.521Z,29.41
2018-07-15T16:30:18.861Z,29.55
2018-07-15T16:31:56.851Z,29.90
2018-07-15T16:33:42.564Z,30.03
2018-07-15T16:35:39.416Z,30.08
2018-07-15T16:37:19.682Z,29.49
2018-07-15T16:39:02.602Z,29.27
2018-07-15T16:40:40.283Z,29.37
2018-07-15T16:42:19.554Z,29.46
2018-07-15T16:43:58.759Z,29.28
2018-07-15T16:45:41.309Z,29.25
2018-07-15T16:47:20.558Z,29.60
2018-07-15T16:48:57.462Z,29.75
2018-07-15T16:50:34.648Z,29.70
2018-07-15T16:52:15.777Z,29.64
2018-07-15T16:53:58.279Z,29.51
2018-07-15T16:55:40.681Z,29.51
2018-07-15T16:57:17.003Z,29.46
2018-07-15T16:58:55.188Z,29.53
2018-07-15T17:00:33.622Z,29.43
2018-07-15T17:02:11.233Z,29.47
2018-07-15T17:03:52.641Z,29.31
2018-07-15T17:05:31.706Z,29.47
2018-07-15T17:07:10.325Z,29.28
2018-07-15T17:08:51.738Z,29.23
2018-07-15T17:10:32.638Z,29.51
2018-07-15T17:12:12.931Z,29.31
2018-07-15T17:13:50.292Z,29.17
2018-07-15T17:15:27.504Z,29.26
2018-07-15T17:17:06.480Z,29.39
2018-07-15T17:18:46.100Z,29.66
2018-07-15T17:20:37.066Z,29.84
2018-07-15T17:22:15.276Z,29.89
2018-07-15T17:23:52.815Z,29.42
2018-07-15T17:25:29.489Z,29.30
2018-07-15T17:27:07.940Z,29.11
2018-07-15T17:28:45.925Z,28.84
2018-07-15T17:30:26.542Z,28.91
2018-07-15T17:32:06.199Z,29.06
2018-07-15T17:33:42.765Z,28.80
2018-07-15T17:35:19.571Z,28.70
2018-07-15T17:37:00.266Z,28.67
2018-07-15T17:38:37.796Z,28.81
2018-07-15T17:40:14.980Z,28.84
2018-07-15T17:41:53.812Z,28.57
2018-07-15T17:43:38.816Z,28.51
2018-07-15T17:45:21.486Z,28.61
2018-07-15T17:47:05.268Z,28.96
2018-07-15T17:49:12.564Z,29.14
2018-07-15T17:50:50.113Z,29.23
2018-07-15T17:52:27.957Z,29.08
2018-07-15T17:54:09.952Z,28.73
2018-07-15T17:55:49.549Z,28.65
2018-07-15T17:57:26.851Z,29.00
2018-07-15T17:59:11.542Z,28.93
2018-07-15T18:00:49.257Z,28.76
2018-07-15T18:02:26.564Z,29.00
2018-07-15T18:04:03.399Z,29.17
2018-07-15T18:05:39.932Z,28.98
2018-07-15T18:07:41.758Z,28.95
2018-07-15T18:09:20.613Z,29.23
2018-07-15T18:10:58.624Z,29.54
2018-07-15T18:12:35.581Z,29.34
2018-07-15T18:14:13.473Z,29.19
2018-07-15T18:15:55.111Z,29.35
2018-07-15T18:17:32.801Z,29.08
2018-07-15T18:19:09.697Z,28.91
2018-07-15T18:20:53.621Z,28.69
2018-07-15T18:22:31.541Z,28.75
2018-07-15T18:24:13.215Z,28.71
2018-07-15T18:25:51.232Z,28.63
2018-07-15T18:27:34.351Z,28.60
2018-07-15T18:29:14.933Z,28.75
2018-07-15T18:30:56.057Z,28.67
2018-07-15T18:32:35.482Z,28.54
2018-07-15T18:34:13.639Z,28.39
2018-07-15T18:35:51.514Z,28.44
2018-07-15T18:37:34.253Z,28.89
2018-07-15T18:39:12.658Z,29.24
2018-07-15T18:40:49.926Z,29.38
2018-07-15T18:42:28.247Z,29.45
2018-07-15T18:44:04.685Z,29.15
2018-07-15T18:45:41.506Z,29.34
2018-07-15T18:47:18.573Z,29.21
2018-07-15T18:48:55.767Z,29.18
2018-07-15T18:50:33.690Z,29.14
2018-07-15T18:52:10.170Z,29.04
2018-07-15T18:53:54.443Z,28.85
2018-07-15T18:55:31.452Z,28.66
2018-07-15T18:57:22.378Z,28.44
2018-07-15T18:58:59.176Z,28.59
2018-07-15T19:00:39.905Z,28.55
2018-07-15T19:02:18.386Z,28.68
2018-07-15T19:04:01.666Z,28.55
2018-07-15T19:05:55.526Z,28.91
2018-07-15T19:07:35.489Z,28.72
2018-07-15T19:09:15.900Z,28.33
2018-07-15T19:10:52.493Z,28.14
2018-07-15T19:12:29.454Z,28.05
2018-07-15T19:14:24.089Z,27.94
2018-07-15T19:16:04.567Z,27.78
2018-07-15T19:17:43.858Z,27.80
2018-07-15T19:19:21.561Z,27.82
2018-07-15T19:20:58.696Z,28.07
2018-07-15T19:22:37.069Z,28.36
2018-07-15T19:24:16.532Z,28.54
2018-07-15T19:25:54.470Z,28.60
2018-07-15T19:27:33.702Z,28.68
2018-07-15T19:29:11.981Z,28.62
2018-07-15T19:30:56.464Z,28.46
2018-07-15T19:32:35.025Z,28.28
2018-07-15T19:34:14.213Z,28.24
2018-07-15T19:37:53.670Z,28.29
2018-07-15T19:39:47.350Z,28.02
2018-07-15T19:41:36.376Z,27.78
2018-07-15T19:43:15.652Z,27.67
2018-07-15T19:44:56.595Z,27.62
2018-07-15T19:46:35.278Z,27.78
2018-07-15T19:48:14.660Z,27.58
2018-07-15T19:49:51.752Z,27.88
2018-07-15T19:51:30.271Z,27.59
2018-07-15T19:53:11.675Z,27.57
2018-07-15T19:54:54.364Z,27.83
2018-07-15T19:56:33.230Z,27.75
2018-07-15T19:58:12.032Z,27.62
2018-07-15T19:59:48.358Z,27.53
2018-07-15T20:01:27.779Z,27.21
2018-07-15T20:03:24.612Z,27.35
2018-07-15T20:05:02.673Z,27.58
2018-07-15T20:06:42.318Z,27.58
2018-07-15T20:08:20.250Z,27.87
2018-07-15T20:09:58.174Z,27.87
2018-07-15T20:11:35.492Z,28.01
2018-07-15T20:13:14.342Z,28.06
2018-07-15T20:14:54.594Z,27.99
2018-07-15T20:16:34.049Z,27.78
2018-07-15T20:18:14.798Z,27.96
2018-07-15T20:19:51.772Z,27.67
2018-07-15T20:21:35.161Z,27.16
2018-07-15T20:23:12.469Z,27.11
2018-07-15T20:24:50.484Z,26.95
2018-07-15T20:26:29.323Z,26.85
2018-07-15T20:28:07.328Z,27.29
2018-07-15T20:29:46.995Z,27.32
2018-07-15T20:33:34.824Z,27.47
2018-07-15T20:35:14.520Z,27.42
2018-07-15T20:36:51.882Z,27.29
2018-07-15T20:38:34.661Z,27.16
2018-07-15T20:40:12.877Z,27.01
2018-07-15T20:41:53.026Z,26.67
2018-07-15T20:43:29.549Z,26.57
2018-07-15T20:45:09.535Z,26.58
2018-07-15T20:46:46.568Z,26.81
2018-07-15T20:48:24.148Z,26.89
2018-07-15T20:50:02.066Z,26.96
2018-07-15T20:51:41.489Z,27.09
2018-07-15T20:53:19.969Z,26.79
2018-07-15T20:55:01.708Z,26.70
2018-07-15T20:56:39.830Z,26.45
2018-07-15T20:58:19.628Z,26.29
2018-07-15T20:59:58.476Z,26.15
2018-07-15T21:01:42.524Z,26.09
2018-07-15T21:03:25.180Z,26.11
2018-07-15T21:05:04.175Z,26.16
2018-07-15T21:06:44.256Z,26.19
2018-07-15T21:08:26.370Z,26.29
2018-07-15T21:10:12.130Z,26.35
2018-07-15T21:12:08.125Z,26.07
2018-07-15T21:13:47.903Z,25.94
2018-07-15T21:15:27.302Z,25.60
2018-07-15T21:17:09.641Z,25.41
2018-07-15T21:18:49.991Z,25.47
2018-07-15T21:20:30.203Z,25.57
2018-07-15T21:22:10.199Z,25.78
2018-07-15T21:23:50.552Z,26.00
2018-07-15T21:25:28.824Z,25.72
2018-07-15T21:27:08.286Z,25.83
2018-07-15T21:28:47.987Z,26.17
2018-07-15T21:30:25.739Z,26.14
2018-07-15T21:32:03.839Z,25.85
2018-07-15T21:33:51.490Z,25.92
2018-07-15T21:35:30.632Z,26.21
2018-07-15T21:37:10.485Z,25.88
2018-07-15T21:38:48.860Z,25.61
2018-07-15T21:40:28.954Z,25.50
2018-07-15T21:42:07.985Z,25.37
2018-07-15T21:43:44.509Z,25.53
2018-07-15T21:45:23.433Z,25.45
2018-07-15T21:47:07.372Z,25.49
2018-07-15T21:49:48.190Z,25.78
2018-07-15T21:51:29.468Z,25.42
2018-07-15T21:53:09.375Z,25.27
2018-07-15T21:54:47.673Z,25.08
2018-07-15T21:56:26.711Z,25.09
2018-07-15T21:58:03.813Z,25.48
2018-07-15T21:59:41.733Z,25.68